sensor_id;sensor_type;location;lat;lon;timestamp;P1;durP1;ratioP1;P2;durP2;ratioP2
21754;SDS011;11039;50.028;19.938;2023-12-20T00:01:36;10.75;;;8.13;;
21754;SDS011;11039;50.028;19.938;2023-12-20T00:04:02;11.98;;;8.90;;
21754;SDS011;11039;50.028;19.938;2023-12-20T00:06:29;12.70;;;8.60;;
21754;SDS011;11039;50.028;19.938;2023-12-20T00:08:55;13.90;;;8.63;;
21754;SDS011;11039;50.028;19.938;2023-12-20T00:11:22;12.20;;;8.35;;
21754;SDS011;11039;50.028;19.938;2023-12-20T00:13:48;12.07;;;8.48;;
21754;SDS011;11039;50.028;19.938;2023-12-20T00:16:14;11.80;;;8.45;;
21754;SDS011;11039;50.028;19.938;2023-12-20T00:18:40;12.65;;;9.23;;
21754;SDS011;11039;50.028;19.938;2023-12-20T00:21:07;12.30;;;8.77;;
21754;SDS011;11039;50.028;19.938;2023-12-20T00:23:33;13.23;;;8.98;;
21754;SDS011;11039;50.028;19.938;2023-12-20T00:25:59;12.98;;;8.73;;
21754;SDS011;11039;50.028;19.938;2023-12-20T00:28:25;12.65;;;8.70;;
21754;SDS011;11039;50.028;19.938;2023-12-20T00:30:51;11.75;;;8.75;;
21754;SDS011;11039;50.028;19.938;2023-12-20T00:33:17;13.32;;;8.43;;
21754;SDS011;11039;50.028;19.938;2023-12-20T00:35:43;13.07;;;8.80;;
21754;SDS011;11039;50.028;19.938;2023-12-20T00:38:09;11.75;;;8.80;;
21754;SDS011;11039;50.028;19.938;2023-12-20T00:40:36;12.77;;;9.25;;
21754;SDS011;11039;50.028;19.938;2023-12-20T00:43:02;12.60;;;8.57;;
21754;SDS011;11039;50.028;19.938;2023-12-20T00:45:28;12.40;;;9.32;;
21754;SDS011;11039;50.028;19.938;2023-12-20T00:47:54;13.35;;;8.90;;
21754;SDS011;11039;50.028;19.938;2023-12-20T00:50:20;13.40;;;9.15;;
21754;SDS011;11039;50.028;19.938;2023-12-20T00:52:47;12.27;;;9.07;;
21754;SDS011;11039;50.028;19.938;2023-12-20T00:55:13;14.93;;;9.23;;
21754;SDS011;11039;50.028;19.938;2023-12-20T00:57:39;13.57;;;9.43;;
21754;SDS011;11039;50.028;19.938;2023-12-20T01:00:05;13.02;;;9.25;;
21754;SDS011;11039;50.028;19.938;2023-12-20T01:02:34;12.93;;;8.65;;
21754;SDS011;11039;50.028;19.938;2023-12-20T01:05:00;12.23;;;9.20;;
21754;SDS011;11039;50.028;19.938;2023-12-20T01:07:26;13.43;;;9.35;;
21754;SDS011;11039;50.028;19.938;2023-12-20T01:09:52;11.75;;;8.52;;
21754;SDS011;11039;50.028;19.938;2023-12-20T01:12:18;12.35;;;9.15;;
21754;SDS011;11039;50.028;19.938;2023-12-20T01:14:45;13.02;;;9.45;;
21754;SDS011;11039;50.028;19.938;2023-12-20T01:17:11;13.52;;;9.40;;
21754;SDS011;11039;50.028;19.938;2023-12-20T01:19:37;11.43;;;8.60;;
21754;SDS011;11039;50.028;19.938;2023-12-20T01:22:04;13.57;;;8.60;;
21754;SDS011;11039;50.028;19.938;2023-12-20T01:24:30;14.32;;;9.70;;
21754;SDS011;11039;50.028;19.938;2023-12-20T01:26:56;13.55;;;9.55;;
21754;SDS011;11039;50.028;19.938;2023-12-20T01:29:22;13.57;;;9.38;;
21754;SDS011;11039;50.028;19.938;2023-12-20T01:31:48;13.93;;;9.68;;
21754;SDS011;11039;50.028;19.938;2023-12-20T01:34:14;13.65;;;9.75;;
21754;SDS011;11039;50.028;19.938;2023-12-20T01:36:40;14.00;;;9.90;;
21754;SDS011;11039;50.028;19.938;2023-12-20T01:39:06;13.77;;;9.68;;
21754;SDS011;11039;50.028;19.938;2023-12-20T01:41:32;14.82;;;9.13;;
21754;SDS011;11039;50.028;19.938;2023-12-20T01:43:58;14.02;;;9.60;;
21754;SDS011;11039;50.028;19.938;2023-12-20T01:46:24;13.25;;;9.40;;
21754;SDS011;11039;50.028;19.938;2023-12-20T01:48:50;12.27;;;9.05;;
21754;SDS011;11039;50.028;19.938;2023-12-20T01:51:17;14.82;;;9.95;;
21754;SDS011;11039;50.028;19.938;2023-12-20T01:53:43;13.07;;;9.52;;
21754;SDS011;11039;50.028;19.938;2023-12-20T01:56:09;12.45;;;9.55;;
21754;SDS011;11039;50.028;19.938;2023-12-20T01:58:37;15.20;;;9.10;;
21754;SDS011;11039;50.028;19.938;2023-12-20T02:01:04;12.93;;;9.45;;
21754;SDS011;11039;50.028;19.938;2023-12-20T02:03:30;14.80;;;10.10;;
21754;SDS011;11039;50.028;19.938;2023-12-20T02:05:57;13.60;;;9.23;;
21754;SDS011;11039;50.028;19.938;2023-12-20T02:08:23;13.65;;;9.75;;
21754;SDS011;11039;50.028;19.938;2023-12-20T02:10:49;12.93;;;9.70;;
21754;SDS011;11039;50.028;19.938;2023-12-20T02:13:15;12.90;;;8.98;;
21754;SDS011;11039;50.028;19.938;2023-12-20T02:15:41;12.77;;;9.20;;
21754;SDS011;11039;50.028;19.938;2023-12-20T02:18:08;12.77;;;9.35;;
21754;SDS011;11039;50.028;19.938;2023-12-20T02:20:34;12.88;;;9.15;;
21754;SDS011;11039;50.028;19.938;2023-12-20T02:23:00;15.77;;;9.25;;
21754;SDS011;11039;50.028;19.938;2023-12-20T02:25:26;14.07;;;8.95;;
21754;SDS011;11039;50.028;19.938;2023-12-20T02:27:52;12.77;;;8.45;;
21754;SDS011;11039;50.028;19.938;2023-12-20T02:30:18;12.55;;;9.18;;
21754;SDS011;11039;50.028;19.938;2023-12-20T02:32:44;13.15;;;9.07;;
21754;SDS011;11039;50.028;19.938;2023-12-20T02:35:10;12.85;;;9.05;;
21754;SDS011;11039;50.028;19.938;2023-12-20T02:37:36;12.18;;;9.10;;
21754;SDS011;11039;50.028;19.938;2023-12-20T02:40:03;14.48;;;9.15;;
21754;SDS011;11039;50.028;19.938;2023-12-20T02:42:29;13.65;;;9.00;;
21754;SDS011;11039;50.028;19.938;2023-12-20T02:44:55;13.63;;;9.18;;
21754;SDS011;11039;50.028;19.938;2023-12-20T02:47:21;12.40;;;8.75;;
21754;SDS011;11039;50.028;19.938;2023-12-20T02:49:47;12.73;;;8.85;;
21754;SDS011;11039;50.028;19.938;2023-12-20T02:52:14;11.13;;;8.07;;
21754;SDS011;11039;50.028;19.938;2023-12-20T02:54:40;12.82;;;8.35;;
21754;SDS011;11039;50.028;19.938;2023-12-20T02:57:06;13.18;;;8.73;;
21754;SDS011;11039;50.028;19.938;2023-12-20T02:59:32;13.15;;;8.75;;
21754;SDS011;11039;50.028;19.938;2023-12-20T03:01:58;13.48;;;9.30;;
21754;SDS011;11039;50.028;19.938;2023-12-20T03:04:24;13.77;;;9.18;;
21754;SDS011;11039;50.028;19.938;2023-12-20T03:06:50;13.13;;;9.40;;
21754;SDS011;11039;50.028;19.938;2023-12-20T03:09:16;12.88;;;8.48;;
21754;SDS011;11039;50.028;19.938;2023-12-20T03:11:42;13.10;;;9.23;;
21754;SDS011;11039;50.028;19.938;2023-12-20T03:14:08;12.00;;;7.97;;
21754;SDS011;11039;50.028;19.938;2023-12-20T03:16:34;12.30;;;8.70;;
21754;SDS011;11039;50.028;19.938;2023-12-20T03:19:00;11.45;;;8.13;;
21754;SDS011;11039;50.028;19.938;2023-12-20T03:21:26;12.88;;;8.80;;
21754;SDS011;11039;50.028;19.938;2023-12-20T03:23:52;13.93;;;9.13;;
21754;SDS011;11039;50.028;19.938;2023-12-20T03:26:18;10.65;;;7.80;;
21754;SDS011;11039;50.028;19.938;2023-12-20T03:28:44;12.55;;;8.68;;
21754;SDS011;11039;50.028;19.938;2023-12-20T03:31:10;12.18;;;8.07;;
21754;SDS011;11039;50.028;19.938;2023-12-20T03:33:37;12.32;;;8.70;;
21754;SDS011;11039;50.028;19.938;2023-12-20T03:36:03;10.95;;;7.85;;
21754;SDS011;11039;50.028;19.938;2023-12-20T03:38:29;11.20;;;7.88;;
21754;SDS011;11039;50.028;19.938;2023-12-20T03:40:55;11.93;;;7.90;;
21754;SDS011;11039;50.028;19.938;2023-12-20T03:43:21;10.52;;;7.97;;
21754;SDS011;11039;50.028;19.938;2023-12-20T03:45:47;9.90;;;7.70;;
21754;SDS011;11039;50.028;19.938;2023-12-20T03:48:13;11.93;;;7.72;;
21754;SDS011;11039;50.028;19.938;2023-12-20T03:50:39;11.13;;;7.68;;
21754;SDS011;11039;50.028;19.938;2023-12-20T03:53:05;10.43;;;7.68;;
21754;SDS011;11039;50.028;19.938;2023-12-20T03:55:31;10.60;;;7.78;;
21754;SDS011;11039;50.028;19.938;2023-12-20T03:57:57;10.48;;;7.85;;
21754;SDS011;11039;50.028;19.938;2023-12-20T04:00:23;11.27;;;7.57;;
21754;SDS011;11039;50.028;19.938;2023-12-20T04:02:49;10.05;;;7.53;;
21754;SDS011;11039;50.028;19.938;2023-12-20T04:05:15;11.43;;;7.90;;
21754;SDS011;11039;50.028;19.938;2023-12-20T04:07:41;10.57;;;7.30;;
21754;SDS011;11039;50.028;19.938;2023-12-20T04:10:07;10.48;;;7.50;;
21754;SDS011;11039;50.028;19.938;2023-12-20T04:12:33;10.43;;;7.65;;
21754;SDS011;11039;50.028;19.938;2023-12-20T04:14:59;9.82;;;7.40;;
21754;SDS011;11039;50.028;19.938;2023-12-20T04:17:25;9.40;;;6.70;;
21754;SDS011;11039;50.028;19.938;2023-12-20T04:19:51;9.60;;;6.90;;
21754;SDS011;11039;50.028;19.938;2023-12-20T04:22:18;10.32;;;7.35;;
21754;SDS011;11039;50.028;19.938;2023-12-20T04:24:44;8.85;;;6.70;;
21754;SDS011;11039;50.028;19.938;2023-12-20T04:27:10;9.55;;;7.13;;
21754;SDS011;11039;50.028;19.938;2023-12-20T04:29:37;9.40;;;6.38;;
21754;SDS011;11039;50.028;19.938;2023-12-20T04:32:03;8.98;;;7.22;;
21754;SDS011;11039;50.028;19.938;2023-12-20T04:34:29;9.93;;;7.03;;
21754;SDS011;11039;50.028;19.938;2023-12-20T04:36:55;9.48;;;6.82;;
21754;SDS011;11039;50.028;19.938;2023-12-20T04:39:21;8.38;;;6.43;;
21754;SDS011;11039;50.028;19.938;2023-12-20T04:41:47;8.38;;;6.13;;
21754;SDS011;11039;50.028;19.938;2023-12-20T04:44:15;9.00;;;6.93;;
21754;SDS011;11039;50.028;19.938;2023-12-20T04:46:41;9.40;;;6.80;;
21754;SDS011;11039;50.028;19.938;2023-12-20T04:49:07;9.32;;;6.90;;
21754;SDS011;11039;50.028;19.938;2023-12-20T04:51:33;8.68;;;6.50;;
21754;SDS011;11039;50.028;19.938;2023-12-20T04:53:59;9.27;;;6.60;;
21754;SDS011;11039;50.028;19.938;2023-12-20T04:56:25;8.70;;;6.15;;
21754;SDS011;11039;50.028;19.938;2023-12-20T04:58:51;7.70;;;5.72;;
21754;SDS011;11039;50.028;19.938;2023-12-20T05:01:17;8.23;;;6.38;;
21754;SDS011;11039;50.028;19.938;2023-12-20T05:03:44;8.48;;;6.25;;
21754;SDS011;11039;50.028;19.938;2023-12-20T05:06:10;9.20;;;6.45;;
21754;SDS011;11039;50.028;19.938;2023-12-20T05:08:36;8.32;;;5.82;;
21754;SDS011;11039;50.028;19.938;2023-12-20T05:11:02;8.63;;;6.00;;
21754;SDS011;11039;50.028;19.938;2023-12-20T05:13:29;8.07;;;5.35;;
21754;SDS011;11039;50.028;19.938;2023-12-20T05:15:55;8.20;;;5.93;;
21754;SDS011;11039;50.028;19.938;2023-12-20T05:18:21;8.00;;;5.95;;
21754;SDS011;11039;50.028;19.938;2023-12-20T05:20:48;6.85;;;5.00;;
21754;SDS011;11039;50.028;19.938;2023-12-20T05:23:14;6.07;;;5.10;;
21754;SDS011;11039;50.028;19.938;2023-12-20T05:25:40;8.60;;;5.57;;
21754;SDS011;11039;50.028;19.938;2023-12-20T05:28:06;7.20;;;5.75;;
21754;SDS011;11039;50.028;19.938;2023-12-20T05:30:32;7.50;;;5.43;;
21754;SDS011;11039;50.028;19.938;2023-12-20T05:32:58;7.00;;;5.32;;
21754;SDS011;11039;50.028;19.938;2023-12-20T05:35:24;7.18;;;5.90;;
21754;SDS011;11039;50.028;19.938;2023-12-20T05:37:50;6.22;;;5.05;;
21754;SDS011;11039;50.028;19.938;2023-12-20T05:40:16;6.50;;;5.28;;
21754;SDS011;11039;50.028;19.938;2023-12-20T05:42:42;6.93;;;5.47;;
21754;SDS011;11039;50.028;19.938;2023-12-20T05:45:08;6.82;;;5.22;;
21754;SDS011;11039;50.028;19.938;2023-12-20T05:47:35;6.75;;;5.40;;
21754;SDS011;11039;50.028;19.938;2023-12-20T05:50:01;6.45;;;4.90;;
21754;SDS011;11039;50.028;19.938;2023-12-20T05:52:28;6.50;;;4.72;;
21754;SDS011;11039;50.028;19.938;2023-12-20T05:54:54;7.22;;;5.30;;
21754;SDS011;11039;50.028;19.938;2023-12-20T05:57:22;6.85;;;4.70;;
21754;SDS011;11039;50.028;19.938;2023-12-20T05:59:48;6.13;;;4.70;;
21754;SDS011;11039;50.028;19.938;2023-12-20T06:02:14;6.57;;;4.80;;
21754;SDS011;11039;50.028;19.938;2023-12-20T06:04:44;5.57;;;4.95;;
21754;SDS011;11039;50.028;19.938;2023-12-20T06:07:13;5.80;;;4.60;;
21754;SDS011;11039;50.028;19.938;2023-12-20T06:09:39;5.95;;;4.38;;
21754;SDS011;11039;50.028;19.938;2023-12-20T06:12:05;6.75;;;5.00;;
21754;SDS011;11039;50.028;19.938;2023-12-20T06:14:31;6.85;;;5.43;;
21754;SDS011;11039;50.028;19.938;2023-12-20T06:16:57;6.10;;;4.57;;
21754;SDS011;11039;50.028;19.938;2023-12-20T06:19:23;6.15;;;4.47;;
21754;SDS011;11039;50.028;19.938;2023-12-20T06:21:49;5.00;;;4.30;;
21754;SDS011;11039;50.028;19.938;2023-12-20T06:24:15;5.38;;;4.20;;
21754;SDS011;11039;50.028;19.938;2023-12-20T06:26:41;5.45;;;4.35;;
21754;SDS011;11039;50.028;19.938;2023-12-20T06:29:08;5.78;;;4.28;;
21754;SDS011;11039;50.028;19.938;2023-12-20T06:31:34;5.47;;;3.97;;
21754;SDS011;11039;50.028;19.938;2023-12-20T06:34:00;5.10;;;4.53;;
21754;SDS011;11039;50.028;19.938;2023-12-20T06:36:26;5.65;;;4.10;;
21754;SDS011;11039;50.028;19.938;2023-12-20T06:38:52;4.90;;;4.15;;
21754;SDS011;11039;50.028;19.938;2023-12-20T06:41:18;5.05;;;4.05;;
21754;SDS011;11039;50.028;19.938;2023-12-20T06:43:44;5.05;;;4.47;;
21754;SDS011;11039;50.028;19.938;2023-12-20T06:46:12;4.75;;;3.95;;
21754;SDS011;11039;50.028;19.938;2023-12-20T06:48:38;4.80;;;4.00;;
21754;SDS011;11039;50.028;19.938;2023-12-20T06:51:05;4.72;;;3.90;;
21754;SDS011;11039;50.028;19.938;2023-12-20T06:53:31;5.32;;;4.10;;
21754;SDS011;11039;50.028;19.938;2023-12-20T06:55:57;4.65;;;4.15;;
21754;SDS011;11039;50.028;19.938;2023-12-20T06:58:23;5.55;;;4.28;;
21754;SDS011;11039;50.028;19.938;2023-12-20T07:00:50;4.93;;;4.07;;
21754;SDS011;11039;50.028;19.938;2023-12-20T07:03:16;4.28;;;3.83;;
21754;SDS011;11039;50.028;19.938;2023-12-20T07:05:43;4.20;;;3.80;;
21754;SDS011;11039;50.028;19.938;2023-12-20T07:08:09;4.82;;;3.85;;
21754;SDS011;11039;50.028;19.938;2023-12-20T07:10:36;4.43;;;3.67;;
21754;SDS011;11039;50.028;19.938;2023-12-20T07:13:02;3.97;;;3.42;;
21754;SDS011;11039;50.028;19.938;2023-12-20T07:15:28;4.22;;;3.60;;
21754;SDS011;11039;50.028;19.938;2023-12-20T07:17:54;5.22;;;3.92;;
21754;SDS011;11039;50.028;19.938;2023-12-20T07:20:20;4.40;;;3.65;;
21754;SDS011;11039;50.028;19.938;2023-12-20T07:22:46;4.20;;;3.80;;
21754;SDS011;11039;50.028;19.938;2023-12-20T07:25:13;3.95;;;3.55;;
21754;SDS011;11039;50.028;19.938;2023-12-20T07:27:39;4.13;;;3.63;;
21754;SDS011;11039;50.028;19.938;2023-12-20T07:30:05;4.57;;;3.90;;
21754;SDS011;11039;50.028;19.938;2023-12-20T07:32:31;3.58;;;3.28;;
21754;SDS011;11039;50.028;19.938;2023-12-20T07:34:57;4.35;;;3.53;;
21754;SDS011;11039;50.028;19.938;2023-12-20T07:37:23;4.07;;;3.60;;
21754;SDS011;11039;50.028;19.938;2023-12-20T07:39:49;4.75;;;3.10;;
21754;SDS011;11039;50.028;19.938;2023-12-20T07:42:15;4.40;;;3.42;;
21754;SDS011;11039;50.028;19.938;2023-12-20T07:44:41;3.85;;;3.42;;
21754;SDS011;11039;50.028;19.938;2023-12-20T07:47:07;4.95;;;4.10;;
21754;SDS011;11039;50.028;19.938;2023-12-20T07:49:33;4.43;;;3.58;;
21754;SDS011;11039;50.028;19.938;2023-12-20T07:51:59;5.43;;;3.92;;
21754;SDS011;11039;50.028;19.938;2023-12-20T07:54:25;4.53;;;3.53;;
21754;SDS011;11039;50.028;19.938;2023-12-20T07:56:51;4.05;;;3.10;;
21754;SDS011;11039;50.028;19.938;2023-12-20T07:59:17;3.97;;;3.53;;
21754;SDS011;11039;50.028;19.938;2023-12-20T08:01:43;4.55;;;3.50;;
21754;SDS011;11039;50.028;19.938;2023-12-20T08:04:10;4.70;;;3.80;;
21754;SDS011;11039;50.028;19.938;2023-12-20T08:06:36;3.20;;;2.90;;
21754;SDS011;11039;50.028;19.938;2023-12-20T08:09:02;4.05;;;3.42;;
21754;SDS011;11039;50.028;19.938;2023-12-20T08:11:29;4.95;;;3.80;;
21754;SDS011;11039;50.028;19.938;2023-12-20T08:13:55;4.35;;;3.03;;
21754;SDS011;11039;50.028;19.938;2023-12-20T08:16:21;3.20;;;2.90;;
21754;SDS011;11039;50.028;19.938;2023-12-20T08:18:47;4.03;;;3.53;;
21754;SDS011;11039;50.028;19.938;2023-12-20T08:21:13;3.78;;;3.20;;
21754;SDS011;11039;50.028;19.938;2023-12-20T08:23:39;4.07;;;3.25;;
21754;SDS011;11039;50.028;19.938;2023-12-20T08:26:06;3.78;;;3.15;;
21754;SDS011;11039;50.028;19.938;2023-12-20T08:28:32;4.40;;;3.40;;
21754;SDS011;11039;50.028;19.938;2023-12-20T08:30:58;4.07;;;3.25;;
21754;SDS011;11039;50.028;19.938;2023-12-20T08:33:24;4.13;;;3.30;;
21754;SDS011;11039;50.028;19.938;2023-12-20T08:35:50;3.35;;;3.05;;
21754;SDS011;11039;50.028;19.938;2023-12-20T08:38:16;3.92;;;3.50;;
21754;SDS011;11039;50.028;19.938;2023-12-20T08:40:43;3.65;;;3.00;;
21754;SDS011;11039;50.028;19.938;2023-12-20T08:43:09;4.05;;;3.25;;
21754;SDS011;11039;50.028;19.938;2023-12-20T08:45:35;3.97;;;2.90;;
21754;SDS011;11039;50.028;19.938;2023-12-20T08:48:01;3.53;;;3.00;;
21754;SDS011;11039;50.028;19.938;2023-12-20T08:50:28;3.47;;;3.17;;
21754;SDS011;11039;50.028;19.938;2023-12-20T08:52:54;3.22;;;2.90;;
21754;SDS011;11039;50.028;19.938;2023-12-20T08:55:20;3.92;;;3.40;;
21754;SDS011;11039;50.028;19.938;2023-12-20T08:57:46;3.80;;;3.40;;
21754;SDS011;11039;50.028;19.938;2023-12-20T09:00:12;4.35;;;3.45;;
21754;SDS011;11039;50.028;19.938;2023-12-20T09:02:39;4.10;;;3.70;;
21754;SDS011;11039;50.028;19.938;2023-12-20T09:05:05;4.07;;;3.25;;
21754;SDS011;11039;50.028;19.938;2023-12-20T09:07:31;4.55;;;3.50;;
21754;SDS011;11039;50.028;19.938;2023-12-20T09:09:57;3.50;;;3.20;;
21754;SDS011;11039;50.028;19.938;2023-12-20T09:12:24;3.92;;;3.28;;
21754;SDS011;11039;50.028;19.938;2023-12-20T09:14:51;4.25;;;3.50;;
21754;SDS011;11039;50.028;19.938;2023-12-20T09:17:17;4.78;;;3.65;;
21754;SDS011;11039;50.028;19.938;2023-12-20T09:19:44;6.97;;;3.72;;
21754;SDS011;11039;50.028;19.938;2023-12-20T09:22:10;4.53;;;3.53;;
21754;SDS011;11039;50.028;19.938;2023-12-20T09:24:36;6.65;;;4.10;;
21754;SDS011;11039;50.028;19.938;2023-12-20T09:27:03;5.68;;;4.15;;
21754;SDS011;11039;50.028;19.938;2023-12-20T09:29:30;7.53;;;4.60;;
21754;SDS011;11039;50.028;19.938;2023-12-20T09:31:56;7.18;;;4.40;;
21754;SDS011;11039;50.028;19.938;2023-12-20T09:34:22;8.48;;;5.13;;
21754;SDS011;11039;50.028;19.938;2023-12-20T09:36:49;7.32;;;4.93;;
21754;SDS011;11039;50.028;19.938;2023-12-20T09:39:15;9.85;;;5.70;;
21754;SDS011;11039;50.028;19.938;2023-12-20T09:41:46;9.43;;;5.15;;
21754;SDS011;11039;50.028;19.938;2023-12-20T09:44:15;13.40;;;5.97;;
21754;SDS011;11039;50.028;19.938;2023-12-20T09:46:45;9.00;;;6.00;;
21754;SDS011;11039;50.028;19.938;2023-12-20T09:49:12;15.32;;;6.72;;
21754;SDS011;11039;50.028;19.938;2023-12-20T09:51:39;14.95;;;7.22;;
21754;SDS011;11039;50.028;19.938;2023-12-20T09:54:05;17.30;;;7.32;;
21754;SDS011;11039;50.028;19.938;2023-12-20T09:56:31;15.55;;;7.35;;
21754;SDS011;11039;50.028;19.938;2023-12-20T09:58:57;21.27;;;7.55;;
21754;SDS011;11039;50.028;19.938;2023-12-20T10:01:23;21.35;;;8.27;;
21754;SDS011;11039;50.028;19.938;2023-12-20T10:03:53;21.35;;;9.13;;
21754;SDS011;11039;50.028;19.938;2023-12-20T10:06:20;30.38;;;9.73;;
21754;SDS011;11039;50.028;19.938;2023-12-20T10:08:46;25.45;;;9.68;;
21754;SDS011;11039;50.028;19.938;2023-12-20T10:11:13;26.55;;;10.35;;
21754;SDS011;11039;50.028;19.938;2023-12-20T10:13:39;28.52;;;10.57;;
21754;SDS011;11039;50.028;19.938;2023-12-20T10:16:06;31.55;;;11.43;;
21754;SDS011;11039;50.028;19.938;2023-12-20T10:18:32;33.65;;;10.70;;
21754;SDS011;11039;50.028;19.938;2023-12-20T10:20:58;41.33;;;12.63;;
21754;SDS011;11039;50.028;19.938;2023-12-20T10:23:25;31.98;;;11.25;;
21754;SDS011;11039;50.028;19.938;2023-12-20T10:25:58;35.53;;;12.55;;
21754;SDS011;11039;50.028;19.938;2023-12-20T10:28:25;30.55;;;12.00;;
21754;SDS011;11039;50.028;19.938;2023-12-20T10:30:54;32.45;;;13.15;;
21754;SDS011;11039;50.028;19.938;2023-12-20T10:33:27;40.15;;;12.98;;
21754;SDS011;11039;50.028;19.938;2023-12-20T10:35:53;33.15;;;12.98;;
21754;SDS011;11039;50.028;19.938;2023-12-20T10:38:19;26.67;;;11.80;;
21754;SDS011;11039;50.028;19.938;2023-12-20T10:40:46;34.00;;;12.73;;
21754;SDS011;11039;50.028;19.938;2023-12-20T10:43:12;32.97;;;11.63;;
21754;SDS011;11039;50.028;19.938;2023-12-20T10:45:38;32.90;;;12.05;;
21754;SDS011;11039;50.028;19.938;2023-12-20T10:48:04;38.45;;;12.05;;
21754;SDS011;11039;50.028;19.938;2023-12-20T10:50:31;35.28;;;12.27;;
21754;SDS011;11039;50.028;19.938;2023-12-20T10:52:57;27.92;;;12.00;;
21754;SDS011;11039;50.028;19.938;2023-12-20T10:55:24;34.78;;;12.55;;
21754;SDS011;11039;50.028;19.938;2023-12-20T10:57:50;29.50;;;12.57;;
21754;SDS011;11039;50.028;19.938;2023-12-20T11:00:18;30.90;;;13.02;;
21754;SDS011;11039;50.028;19.938;2023-12-20T11:02:44;31.23;;;12.07;;
21754;SDS011;11039;50.028;19.938;2023-12-20T11:05:16;30.05;;;12.43;;
21754;SDS011;11039;50.028;19.938;2023-12-20T11:07:47;25.23;;;12.25;;
21754;SDS011;11039;50.028;19.938;2023-12-20T11:10:36;23.25;;;11.13;;
21754;SDS011;11039;50.028;19.938;2023-12-20T11:15:29;27.17;;;10.98;;
21754;SDS011;11039;50.028;19.938;2023-12-20T11:17:55;26.95;;;11.05;;
21754;SDS011;11039;50.028;19.938;2023-12-20T11:20:34;24.58;;;11.43;;
21754;SDS011;11039;50.028;19.938;2023-12-20T11:23:01;25.67;;;11.05;;
21754;SDS011;11039;50.028;19.938;2023-12-20T11:25:27;19.85;;;10.52;;
21754;SDS011;11039;50.028;19.938;2023-12-20T11:28:09;26.33;;;11.25;;
21754;SDS011;11039;50.028;19.938;2023-12-20T11:30:52;23.83;;;10.10;;
21754;SDS011;11039;50.028;19.938;2023-12-20T11:33:51;22.80;;;10.20;;
21754;SDS011;11039;50.028;19.938;2023-12-20T11:36:19;23.48;;;10.55;;
21754;SDS011;11039;50.028;19.938;2023-12-20T11:38:55;27.77;;;10.65;;
21754;SDS011;11039;50.028;19.938;2023-12-20T11:41:22;23.98;;;10.73;;
21754;SDS011;11039;50.028;19.938;2023-12-20T11:43:55;16.80;;;10.63;;
21754;SDS011;11039;50.028;19.938;2023-12-20T11:46:21;21.13;;;10.48;;
21754;SDS011;11039;50.028;19.938;2023-12-20T11:48:47;18.88;;;10.65;;
21754;SDS011;11039;50.028;19.938;2023-12-20T11:51:14;22.10;;;11.30;;
21754;SDS011;11039;50.028;19.938;2023-12-20T11:53:40;26.90;;;10.63;;
21754;SDS011;11039;50.028;19.938;2023-12-20T11:56:09;23.90;;;11.05;;
21754;SDS011;11039;50.028;19.938;2023-12-20T11:58:36;24.42;;;11.52;;
21754;SDS011;11039;50.028;19.938;2023-12-20T12:01:02;21.80;;;11.02;;
21754;SDS011;11039;50.028;19.938;2023-12-20T12:03:29;18.50;;;10.20;;
21754;SDS011;11039;50.028;19.938;2023-12-20T12:05:55;20.50;;;10.40;;
21754;SDS011;11039;50.028;19.938;2023-12-20T12:08:21;27.58;;;10.82;;
21754;SDS011;11039;50.028;19.938;2023-12-20T12:10:47;22.73;;;10.65;;
21754;SDS011;11039;50.028;19.938;2023-12-20T12:13:13;24.17;;;9.57;;
21754;SDS011;11039;50.028;19.938;2023-12-20T12:15:40;17.90;;;10.15;;
21754;SDS011;11039;50.028;19.938;2023-12-20T12:18:07;20.13;;;10.23;;
21754;SDS011;11039;50.028;19.938;2023-12-20T12:20:33;16.45;;;9.85;;
21754;SDS011;11039;50.028;19.938;2023-12-20T12:23:03;20.60;;;10.88;;
21754;SDS011;11039;50.028;19.938;2023-12-20T12:25:30;19.70;;;9.95;;
21754;SDS011;11039;50.028;19.938;2023-12-20T12:27:56;19.33;;;10.00;;
21754;SDS011;11039;50.028;19.938;2023-12-20T12:30:23;21.95;;;9.20;;
21754;SDS011;11039;50.028;19.938;2023-12-20T12:32:52;18.63;;;9.18;;
21754;SDS011;11039;50.028;19.938;2023-12-20T12:35:19;18.35;;;9.23;;
21754;SDS011;11039;50.028;19.938;2023-12-20T12:37:45;14.30;;;9.57;;
21754;SDS011;11039;50.028;19.938;2023-12-20T12:40:12;16.15;;;9.13;;
21754;SDS011;11039;50.028;19.938;2023-12-20T12:42:38;18.55;;;9.35;;
21754;SDS011;11039;50.028;19.938;2023-12-20T12:45:05;16.95;;;9.43;;
21754;SDS011;11039;50.028;19.938;2023-12-20T12:47:31;16.17;;;9.00;;
21754;SDS011;11039;50.028;19.938;2023-12-20T12:49:58;18.75;;;9.90;;
21754;SDS011;11039;50.028;19.938;2023-12-20T12:52:24;20.13;;;10.77;;
21754;SDS011;11039;50.028;19.938;2023-12-20T12:54:51;22.40;;;11.10;;
21754;SDS011;11039;50.028;19.938;2023-12-20T12:57:17;23.52;;;12.35;;
21754;SDS011;11039;50.028;19.938;2023-12-20T12:59:44;23.08;;;13.23;;
21754;SDS011;11039;50.028;19.938;2023-12-20T13:02:13;26.75;;;13.35;;
21754;SDS011;11039;50.028;19.938;2023-12-20T13:04:40;25.50;;;13.88;;
21754;SDS011;11039;50.028;19.938;2023-12-20T13:07:06;27.55;;;15.00;;
21754;SDS011;11039;50.028;19.938;2023-12-20T13:09:33;32.10;;;15.63;;
21754;SDS011;11039;50.028;19.938;2023-12-20T13:11:59;30.13;;;16.00;;
21754;SDS011;11039;50.028;19.938;2023-12-20T13:14:28;28.90;;;15.98;;
21754;SDS011;11039;50.028;19.938;2023-12-20T13:16:54;33.15;;;17.35;;
21754;SDS011;11039;50.028;19.938;2023-12-20T13:19:21;33.78;;;16.73;;
21754;SDS011;11039;50.028;19.938;2023-12-20T13:21:47;31.80;;;17.27;;
21754;SDS011;11039;50.028;19.938;2023-12-20T13:24:13;35.20;;;18.25;;
21754;SDS011;11039;50.028;19.938;2023-12-20T13:26:39;35.88;;;18.58;;
21754;SDS011;11039;50.028;19.938;2023-12-20T13:29:05;37.53;;;18.35;;
21754;SDS011;11039;50.028;19.938;2023-12-20T13:31:31;37.17;;;18.73;;
21754;SDS011;11039;50.028;19.938;2023-12-20T13:33:57;35.47;;;19.02;;
21754;SDS011;11039;50.028;19.938;2023-12-20T13:36:24;36.67;;;18.83;;
21754;SDS011;11039;50.028;19.938;2023-12-20T13:38:50;40.17;;;18.70;;
21754;SDS011;11039;50.028;19.938;2023-12-20T13:41:16;36.33;;;18.80;;
21754;SDS011;11039;50.028;19.938;2023-12-20T13:43:42;35.60;;;18.85;;
21754;SDS011;11039;50.028;19.938;2023-12-20T13:46:08;31.48;;;18.20;;
21754;SDS011;11039;50.028;19.938;2023-12-20T13:48:34;38.30;;;18.27;;
21754;SDS011;11039;50.028;19.938;2023-12-20T13:51:00;38.20;;;18.85;;
21754;SDS011;11039;50.028;19.938;2023-12-20T13:53:27;35.08;;;18.63;;
21754;SDS011;11039;50.028;19.938;2023-12-20T13:55:53;34.00;;;17.90;;
21754;SDS011;11039;50.028;19.938;2023-12-20T13:58:19;30.95;;;16.88;;
21754;SDS011;11039;50.028;19.938;2023-12-20T14:00:46;30.67;;;16.88;;
21754;SDS011;11039;50.028;19.938;2023-12-20T14:03:12;35.00;;;16.52;;
21754;SDS011;11039;50.028;19.938;2023-12-20T14:05:38;28.52;;;16.02;;
21754;SDS011;11039;50.028;19.938;2023-12-20T14:08:04;27.88;;;16.13;;
21754;SDS011;11039;50.028;19.938;2023-12-20T14:10:30;30.80;;;16.05;;
21754;SDS011;11039;50.028;19.938;2023-12-20T14:12:56;26.60;;;15.27;;
21754;SDS011;11039;50.028;19.938;2023-12-20T14:15:22;28.67;;;16.25;;
21754;SDS011;11039;50.028;19.938;2023-12-20T14:17:50;27.92;;;14.73;;
21754;SDS011;11039;50.028;19.938;2023-12-20T14:20:16;26.05;;;14.70;;
21754;SDS011;11039;50.028;19.938;2023-12-20T14:22:43;30.75;;;15.20;;